createdAt,value
2022-10-23T00:01:58.192Z,50.20
2022-10-23T00:04:24.516Z,49.90
2022-10-23T00:06:50.857Z,50.10
2022-10-23T00:09:17.196Z,50.25
2022-10-23T00:11:43.526Z,50.07
2022-10-23T00:14:09.856Z,49.82
2022-10-23T00:16:36.200Z,50.10
2022-10-23T00:19:02.538Z,50.19
2022-10-23T00:21:28.874Z,50.36
2022-10-23T00:23:55.296Z,50.06
2022-10-23T00:26:21.714Z,50.29
2022-10-23T00:28:48.069Z,50.20
2022-10-23T00:31:14.411Z,50.20
2022-10-23T00:33:40.757Z,49.89
2022-10-23T00:36:07.094Z,50.08
2022-10-23T00:38:33.424Z,49.99
2022-10-23T00:40:59.765Z,50.34
2022-10-23T00:43:26.092Z,50.31
2022-10-23T00:45:52.423Z,49.92
2022-10-23T00:48:18.754Z,49.96
2022-10-23T00:50:45.082Z,49.83
2022-10-23T00:53:11.399Z,49.70
2022-10-23T00:55:37.728Z,49.72
2022-10-23T00:58:04.057Z,49.64
2022-10-23T01:00:30.388Z,49.88
2022-10-23T01:02:56.721Z,49.77
2022-10-23T01:05:23.072Z,49.94
2022-10-23T01:07:49.405Z,49.94
2022-10-23T01:10:15.737Z,49.93
2022-10-23T01:12:42.073Z,49.69
2022-10-23T01:15:08.387Z,49.55
2022-10-23T01:17:34.692Z,49.61
2022-10-23T01:20:01.044Z,49.63
2022-10-23T01:22:27.399Z,49.82
2022-10-23T01:24:53.739Z,49.62
2022-10-23T01:27:20.060Z,49.75
2022-10-23T01:29:46.385Z,49.58
2022-10-23T01:32:12.717Z,49.67
2022-10-23T01:34:39.036Z,49.63
2022-10-23T01:37:05.378Z,49.72
2022-10-23T01:39:31.700Z,49.51
2022-10-23T01:41:58.007Z,49.72
2022-10-23T01:44:24.330Z,49.46
2022-10-23T01:46:50.646Z,49.29
2022-10-23T01:49:16.965Z,49.27
2022-10-23T01:51:43.285Z,49.25
2022-10-23T01:54:09.609Z,49.08
2022-10-23T01:56:35.931Z,49.02
2022-10-23T01:59:02.259Z,49.40
2022-10-23T02:01:28.665Z,49.02
2022-10-23T02:03:55.108Z,49.27
2022-10-23T02:06:21.440Z,48.89
2022-10-23T02:08:47.770Z,48.86
2022-10-23T02:11:14.095Z,49.12
2022-10-23T02:13:40.428Z,49.20
2022-10-23T02:16:06.762Z,48.87
2022-10-23T02:18:33.084Z,48.84
2022-10-23T02:20:59.410Z,49.17
2022-10-23T02:23:25.735Z,49.30
2022-10-23T02:25:52.061Z,48.85
2022-10-23T02:28:18.394Z,49.12
2022-10-23T02:30:44.707Z,49.30
2022-10-23T02:33:11.041Z,49.04
2022-10-23T02:35:37.369Z,49.37
2022-10-23T02:38:03.683Z,49.38
2022-10-23T02:40:30.027Z,49.09
2022-10-23T02:42:56.356Z,48.69
2022-10-23T02:45:22.677Z,48.67
2022-10-23T02:47:49.000Z,48.63
2022-10-23T02:50:15.329Z,48.64
2022-10-23T02:52:41.666Z,48.49
2022-10-23T02:55:07.994Z,48.47
2022-10-23T02:57:34.329Z,48.63
2022-10-23T03:00:00.639Z,48.57
2022-10-23T03:02:27.006Z,48.40
2022-10-23T03:04:53.380Z,48.36
2022-10-23T03:07:19.700Z,48.67
2022-10-23T03:09:46.011Z,48.57
2022-10-23T03:12:12.330Z,48.29
2022-10-23T03:14:38.652Z,48.20
2022-10-23T03:17:05.221Z,48.13
2022-10-23T03:19:31.557Z,48.44
2022-10-23T03:21:57.870Z,48.82
2022-10-23T03:24:24.202Z,48.67
2022-10-23T03:26:50.539Z,48.50
2022-10-23T03:29:16.863Z,48.36
2022-10-23T03:31:43.174Z,48.60
2022-10-23T03:34:09.521Z,48.30
2022-10-23T03:36:35.847Z,48.17
2022-10-23T03:39:02.172Z,47.93
2022-10-23T03:41:28.505Z,47.94
2022-10-23T03:43:54.887Z,47.99
2022-10-23T03:46:21.237Z,48.19
2022-10-23T03:48:47.562Z,48.23
2022-10-23T03:51:13.881Z,48.11
2022-10-23T03:53:40.282Z,48.12
2022-10-23T03:56:06.604Z,48.16
2022-10-23T03:58:32.938Z,47.99
2022-10-23T04:00:59.334Z,47.94
2022-10-23T04:03:25.716Z,47.84
2022-10-23T04:05:52.447Z,48.14
2022-10-23T04:08:20.185Z,47.84
2022-10-23T04:10:46.731Z,47.74
2022-10-23T04:13:13.069Z,47.97
2022-10-23T04:15:39.388Z,47.79
2022-10-23T04:18:05.727Z,47.91
2022-10-23T04:20:32.052Z,47.61
2022-10-23T04:22:58.376Z,47.51
2022-10-23T04:25:24.696Z,47.53
2022-10-23T04:27:51.101Z,47.52
2022-10-23T04:30:17.419Z,47.83
2022-10-23T04:32:43.746Z,47.40
2022-10-23T04:35:10.067Z,47.70
2022-10-23T04:37:36.414Z,47.38
2022-10-23T04:40:02.743Z,47.69
2022-10-23T04:42:29.067Z,47.50
2022-10-23T04:44:55.391Z,47.45
2022-10-23T04:47:21.718Z,47.46
2022-10-23T04:49:48.044Z,47.30
2022-10-23T04:52:14.373Z,47.40
2022-10-23T04:54:40.696Z,47.35
2022-10-23T04:57:07.015Z,47.20
2022-10-23T04:59:33.332Z,47.40
2022-10-23T05:01:59.702Z,47.23
2022-10-23T05:04:26.053Z,47.26
2022-10-23T05:06:52.417Z,47.18
2022-10-23T05:09:18.748Z,47.19
2022-10-23T05:11:45.069Z,47.46
2022-10-23T05:14:11.400Z,47.44
2022-10-23T05:16:37.743Z,47.52
2022-10-23T05:19:04.060Z,47.59
2022-10-23T05:21:30.372Z,47.43
2022-10-23T05:23:56.736Z,47.58
2022-10-23T05:26:23.136Z,47.26
2022-10-23T05:28:49.456Z,47.44
2022-10-23T05:31:15.776Z,47.30
2022-10-23T05:33:42.115Z,47.15
2022-10-23T05:36:08.432Z,47.15
2022-10-23T05:38:34.762Z,46.82
2022-10-23T05:41:01.100Z,46.86
2022-10-23T05:43:27.428Z,46.65
2022-10-23T05:45:53.766Z,46.38
2022-10-23T05:48:30.144Z,46.24
2022-10-23T05:51:00.169Z,46.35
2022-10-23T05:53:26.502Z,46.09
2022-10-23T05:55:52.831Z,46.28
2022-10-23T05:58:19.160Z,46.16
2022-10-23T06:00:45.502Z,46.77
2022-10-23T06:03:11.837Z,47.19
2022-10-23T06:08:09.396Z,47.63
2022-10-23T06:10:35.729Z,47.38
2022-10-23T06:13:02.066Z,47.41
2022-10-23T06:15:28.384Z,47.66
2022-10-23T06:17:54.701Z,47.82
2022-10-23T06:20:23.121Z,47.40
2022-10-23T06:22:52.842Z,47.38
2022-10-23T06:25:19.161Z,47.40
2022-10-23T06:27:45.493Z,47.14
2022-10-23T06:30:11.798Z,46.92
2022-10-23T06:32:38.125Z,46.94
2022-10-23T06:35:04.453Z,47.09
2022-10-23T06:37:30.764Z,47.08
2022-10-23T06:39:57.105Z,47.46
2022-10-23T06:42:23.430Z,46.93
2022-10-23T06:44:49.753Z,46.69
2022-10-23T06:49:47.289Z,45.84
2022-10-23T06:52:18.519Z,46.10
2022-10-23T06:54:55.016Z,44.30
2022-10-23T06:57:21.376Z,44.05
2022-10-23T06:59:47.701Z,45.06
2022-10-23T07:02:14.066Z,46.20
2022-10-23T07:04:40.397Z,46.26
2022-10-23T07:07:06.733Z,46.85
2022-10-23T07:09:33.070Z,46.14
2022-10-23T07:11:59.400Z,46.47
2022-10-23T07:14:25.728Z,46.79
2022-10-23T07:16:52.052Z,46.95
2022-10-23T07:19:18.389Z,47.09
2022-10-23T07:21:44.752Z,47.07
2022-10-23T07:24:11.077Z,47.25
2022-10-23T07:26:37.476Z,47.56
2022-10-23T07:29:03.866Z,47.38
2022-10-23T07:31:30.184Z,47.26
2022-10-23T07:33:56.531Z,47.66
2022-10-23T07:36:22.887Z,48.00
2022-10-23T07:38:49.239Z,48.18
2022-10-23T07:41:15.585Z,48.66
2022-10-23T07:43:41.921Z,47.88
2022-10-23T07:46:08.262Z,47.51
2022-10-23T07:48:34.594Z,47.62
2022-10-23T07:51:00.991Z,47.46
2022-10-23T07:53:27.353Z,48.00
2022-10-23T07:55:53.680Z,48.29
2022-10-23T07:58:22.564Z,46.74
2022-10-23T08:00:48.892Z,45.48
2022-10-23T08:03:15.222Z,45.41
2022-10-23T08:05:41.573Z,46.03
2022-10-23T08:08:07.915Z,46.49
2022-10-23T08:10:34.250Z,47.33
2022-10-23T08:13:00.574Z,47.63
2022-10-23T08:15:26.909Z,47.62
2022-10-23T08:17:53.226Z,47.87
2022-10-23T08:20:19.564Z,47.85
2022-10-23T08:22:45.888Z,47.87
2022-10-23T08:25:12.285Z,47.62
2022-10-23T08:27:38.696Z,47.59
2022-10-23T08:30:05.043Z,47.82
2022-10-23T08:32:31.375Z,47.67
2022-10-23T08:34:57.705Z,47.69
2022-10-23T08:37:24.027Z,47.97
2022-10-23T08:39:52.654Z,47.70
2022-10-23T08:42:19.728Z,47.89
2022-10-23T08:44:46.056Z,47.79
2022-10-23T08:47:12.386Z,48.09
2022-10-23T08:49:38.721Z,47.82
2022-10-23T08:52:05.046Z,47.74
2022-10-23T08:54:31.379Z,48.33
2022-10-23T08:56:57.710Z,48.68
2022-10-23T08:59:24.055Z,48.66
2022-10-23T09:01:50.474Z,48.68
2022-10-23T09:04:16.870Z,49.08
2022-10-23T09:06:43.204Z,49.21
2022-10-23T09:09:09.542Z,49.30
2022-10-23T09:11:35.869Z,49.48
2022-10-23T09:14:02.195Z,49.28
2022-10-23T09:16:28.534Z,49.41
2022-10-23T09:18:54.870Z,49.60
2022-10-23T09:21:21.232Z,49.63
2022-10-23T09:23:47.564Z,49.49
2022-10-23T09:26:13.896Z,49.44
2022-10-23T09:28:40.221Z,49.64
2022-10-23T09:31:06.567Z,50.08
2022-10-23T09:33:32.905Z,49.91
2022-10-23T09:35:59.235Z,49.92
2022-10-23T09:38:25.564Z,49.92
2022-10-23T09:40:51.933Z,49.93
2022-10-23T09:43:18.254Z,49.97
2022-10-23T09:45:44.580Z,50.17
2022-10-23T09:48:10.897Z,49.98
2022-10-23T09:50:37.224Z,49.58
2022-10-23T09:53:03.564Z,49.92
2022-10-23T09:55:29.905Z,50.00
2022-10-23T09:57:56.234Z,49.58
2022-10-23T10:00:22.564Z,49.34
2022-10-23T10:02:48.906Z,49.23
2022-10-23T10:05:15.229Z,49.81
2022-10-23T10:07:41.609Z,49.85
2022-10-23T10:10:07.994Z,49.66
2022-10-23T10:12:34.332Z,49.59
2022-10-23T10:15:00.660Z,49.57
2022-10-23T10:17:26.988Z,49.51
2022-10-23T10:19:53.298Z,49.40
2022-10-23T10:22:19.634Z,49.48
2022-10-23T10:24:45.960Z,49.37
2022-10-23T10:27:12.290Z,49.58
2022-10-23T10:29:38.615Z,49.76
2022-10-23T10:32:04.959Z,49.54
2022-10-23T10:34:31.285Z,49.50
2022-10-23T10:36:57.609Z,49.54
2022-10-23T10:39:23.940Z,49.35
2022-10-23T10:41:50.264Z,49.61
2022-10-23T10:44:16.599Z,49.31
2022-10-23T10:46:42.927Z,49.67
2022-10-23T10:49:09.257Z,49.40
2022-10-23T10:51:35.585Z,49.38
2022-10-23T10:54:01.938Z,49.85
2022-10-23T10:56:28.273Z,49.89
2022-10-23T10:58:54.600Z,50.07
2022-10-23T11:01:21.005Z,50.12
2022-10-23T11:03:47.478Z,50.03
2022-10-23T11:06:13.810Z,49.86
2022-10-23T11:08:50.130Z,49.80
2022-10-23T11:11:24.623Z,49.69
2022-10-23T11:13:50.953Z,50.12
2022-10-23T11:16:17.297Z,49.69
2022-10-23T11:18:43.620Z,49.79
2022-10-23T11:21:09.957Z,50.04
2022-10-23T11:23:36.303Z,50.12
2022-10-23T11:26:02.633Z,49.82
2022-10-23T11:28:28.953Z,49.89
2022-10-23T11:30:55.277Z,50.35
2022-10-23T11:33:21.599Z,50.32
2022-10-23T11:35:47.938Z,50.21
2022-10-23T11:38:14.276Z,50.04
2022-10-23T11:40:40.682Z,50.26
2022-10-23T11:43:07.065Z,50.39
2022-10-23T11:45:33.397Z,50.34
2022-10-23T11:47:59.722Z,50.14
2022-10-23T11:50:26.062Z,50.33
2022-10-23T11:53:12.564Z,50.18
2022-10-23T11:55:38.692Z,50.13
2022-10-23T11:58:05.025Z,50.26
2022-10-23T12:00:31.344Z,50.01
2022-10-23T12:02:59.041Z,50.16
2022-10-23T12:05:25.692Z,50.11
2022-10-23T12:07:52.036Z,50.39
2022-10-23T12:10:18.377Z,50.38
2022-10-23T12:12:44.714Z,50.07
2022-10-23T12:15:11.044Z,50.14
2022-10-23T12:17:37.415Z,50.41
2022-10-23T12:20:03.755Z,50.62
2022-10-23T12:22:30.133Z,50.38
2022-10-23T12:24:56.505Z,50.40
2022-10-23T12:27:22.832Z,50.61
2022-10-23T12:29:49.169Z,49.82
2022-10-23T12:32:15.495Z,50.22
2022-10-23T12:34:41.816Z,50.51
2022-10-23T12:37:08.142Z,50.67
2022-10-23T12:39:34.471Z,51.25
2022-10-23T12:42:00.806Z,51.34
2022-10-23T12:44:27.135Z,51.62
2022-10-23T12:46:53.455Z,51.84
2022-10-23T12:49:19.798Z,51.71
2022-10-23T12:51:46.145Z,51.42
2022-10-23T12:54:12.473Z,51.56
2022-10-23T12:56:38.819Z,52.07
2022-10-23T12:59:05.168Z,52.22
2022-10-23T13:01:31.546Z,52.35
2022-10-23T13:03:57.969Z,52.08
2022-10-23T13:06:24.329Z,51.85
2022-10-23T13:08:50.656Z,52.05
2022-10-23T13:11:16.979Z,52.02
2022-10-23T13:13:43.300Z,52.60
2022-10-23T13:16:09.635Z,52.84
2022-10-23T13:18:35.970Z,53.01
2022-10-23T13:23:33.532Z,53.79
2022-10-23T13:25:59.860Z,53.77
2022-10-23T13:28:26.194Z,53.93
2022-10-23T13:30:52.527Z,54.27
2022-10-23T13:33:18.860Z,54.67
2022-10-23T13:35:45.201Z,54.56
2022-10-23T13:38:11.556Z,53.43
2022-10-23T13:40:37.875Z,54.06
2022-10-23T13:43:04.205Z,53.93
2022-10-23T13:45:30.522Z,54.02
2022-10-23T13:47:56.844Z,54.16
2022-10-23T13:50:23.167Z,53.98
2022-10-23T13:52:49.493Z,53.74
2022-10-23T13:55:15.846Z,54.04
2022-10-23T13:57:42.418Z,54.24
2022-10-23T14:00:08.974Z,53.87
2022-10-23T14:02:35.377Z,53.74
2022-10-23T14:05:01.732Z,53.61
2022-10-23T14:07:28.056Z,54.07
2022-10-23T14:09:54.634Z,53.86
2022-10-23T14:12:21.026Z,53.46
2022-10-23T14:14:47.357Z,53.43
2022-10-23T14:17:13.684Z,53.33
2022-10-23T14:19:40.050Z,53.35
2022-10-23T14:22:06.417Z,54.15
2022-10-23T14:24:32.755Z,54.52
2022-10-23T14:26:59.093Z,54.13
2022-10-23T14:29:25.464Z,54.33
2022-10-23T14:31:51.801Z,54.68
2022-10-23T14:34:18.141Z,54.43
2022-10-23T14:36:50.204Z,54.34
2022-10-23T14:39:22.946Z,54.72
2022-10-23T14:41:49.296Z,54.53
2022-10-23T14:44:15.626Z,55.10
2022-10-23T14:46:41.964Z,54.62
2022-10-23T14:49:08.333Z,54.61
2022-10-23T14:51:34.654Z,54.62
2022-10-23T14:54:00.985Z,55.07
2022-10-23T14:56:27.319Z,56.82
2022-10-23T14:58:53.653Z,55.32
2022-10-23T15:01:20.206Z,55.64
2022-10-23T15:03:46.688Z,55.39
2022-10-23T15:06:17.517Z,55.44
2022-10-23T15:08:44.738Z,55.49
2022-10-23T15:11:12.608Z,55.13
2022-10-23T15:13:39.246Z,55.56
2022-10-23T15:16:05.572Z,55.66
2022-10-23T15:18:31.995Z,55.63
2022-10-23T15:20:58.355Z,55.46
2022-10-23T15:23:24.694Z,55.46
2022-10-23T15:25:51.029Z,55.58
2022-10-23T15:28:17.362Z,55.35
2022-10-23T15:30:43.694Z,55.34
2022-10-23T15:33:10.025Z,55.51
2022-10-23T15:35:36.388Z,55.67
2022-10-23T15:38:02.713Z,56.09
2022-10-23T15:40:29.048Z,55.72
2022-10-23T15:42:55.382Z,55.39
2022-10-23T15:45:21.712Z,54.97
2022-10-23T15:47:48.043Z,55.34
2022-10-23T15:50:14.400Z,55.01
2022-10-23T15:52:40.846Z,55.07
2022-10-23T15:55:07.259Z,55.01
2022-10-23T15:57:33.589Z,55.16
2022-10-23T15:59:59.919Z,54.91
2022-10-23T16:02:26.367Z,55.26
2022-10-23T16:04:52.798Z,54.84
2022-10-23T16:07:19.132Z,54.98
2022-10-23T16:09:45.460Z,54.08
2022-10-23T16:12:11.784Z,54.61
2022-10-23T16:14:38.105Z,54.31
2022-10-23T16:17:04.493Z,54.08
2022-10-23T16:19:30.840Z,53.72
2022-10-23T16:21:57.165Z,54.10
2022-10-23T16:24:23.480Z,54.34
2022-10-23T16:26:49.800Z,54.56
2022-10-23T16:29:16.112Z,55.46
2022-10-23T16:31:42.454Z,55.93
2022-10-23T16:34:08.791Z,56.55
2022-10-23T16:36:35.139Z,56.75
2022-10-23T16:39:01.481Z,56.69
2022-10-23T16:41:27.805Z,56.91
2022-10-23T16:43:54.137Z,57.32
2022-10-23T16:46:20.494Z,58.21
2022-10-23T16:48:46.831Z,58.45
2022-10-23T16:51:13.157Z,58.38
2022-10-23T16:53:39.494Z,58.17
2022-10-23T16:56:05.840Z,58.01
2022-10-23T16:58:32.172Z,58.28
2022-10-23T17:00:58.606Z,58.34
2022-10-23T17:03:24.984Z,58.19
2022-10-23T17:05:51.313Z,58.11
2022-10-23T17:08:17.650Z,58.14
2022-10-23T17:10:43.989Z,58.04
2022-10-23T17:13:10.319Z,58.06
2022-10-23T17:15:36.690Z,58.21
2022-10-23T17:18:03.061Z,58.62
2022-10-23T17:20:29.393Z,58.62
2022-10-23T17:22:55.761Z,58.70
2022-10-23T17:25:22.105Z,58.29
2022-10-23T17:27:48.456Z,58.49
2022-10-23T17:30:14.784Z,58.44
2022-10-23T17:32:41.458Z,58.20
2022-10-23T17:35:08.133Z,58.44
2022-10-23T17:37:34.471Z,58.22
2022-10-23T17:40:01.348Z,58.42
2022-10-23T17:42:27.982Z,58.47
2022-10-23T17:44:54.323Z,58.35
2022-10-23T17:47:20.661Z,57.96
2022-10-23T17:49:46.987Z,58.35
2022-10-23T17:52:13.450Z,58.34
2022-10-23T17:54:39.783Z,58.06
2022-10-23T17:57:06.146Z,58.45
2022-10-23T17:59:32.484Z,58.12
2022-10-23T18:01:58.961Z,58.14
2022-10-23T18:04:25.411Z,58.42
2022-10-23T18:06:51.748Z,58.27
2022-10-23T18:09:18.076Z,58.36
2022-10-23T18:11:45.535Z,58.09
2022-10-23T18:14:14.156Z,57.98
2022-10-23T18:16:40.475Z,58.08
2022-10-23T18:19:06.822Z,58.04
2022-10-23T18:21:33.153Z,57.96
2022-10-23T18:23:59.498Z,57.78
2022-10-23T18:26:25.820Z,57.79
2022-10-23T18:28:52.146Z,57.99
2022-10-23T18:31:18.477Z,57.79
2022-10-23T18:33:44.805Z,57.68
2022-10-23T18:36:11.141Z,57.80
2022-10-23T18:38:37.513Z,57.68
2022-10-23T18:41:03.852Z,57.59
2022-10-23T18:43:43.276Z,57.63
2022-10-23T18:46:10.609Z,57.49
2022-10-23T18:48:36.947Z,57.35
2022-10-23T18:51:03.274Z,57.82
2022-10-23T18:53:29.596Z,57.40
2022-10-23T18:55:55.933Z,57.69
2022-10-23T18:58:22.284Z,57.47
2022-10-23T19:00:48.614Z,57.45
2022-10-23T19:03:14.958Z,57.35
2022-10-23T19:05:41.285Z,57.37
2022-10-23T19:08:07.616Z,56.93
2022-10-23T19:10:33.947Z,57.25
2022-10-23T19:13:00.265Z,55.91
2022-10-23T19:15:26.597Z,55.43
2022-10-23T19:17:52.929Z,55.17
2022-10-23T19:20:19.286Z,55.48
2022-10-23T19:22:45.902Z,55.93
2022-10-23T19:25:12.358Z,55.79
2022-10-23T19:27:38.713Z,53.04
2022-10-23T19:30:05.049Z,52.28
2022-10-23T19:32:31.394Z,53.26
2022-10-23T19:34:57.726Z,53.86
2022-10-23T19:37:24.050Z,54.29
2022-10-23T19:39:50.385Z,54.41
2022-10-23T19:42:16.721Z,54.79
2022-10-23T19:44:43.054Z,54.43
2022-10-23T19:47:09.383Z,54.62
2022-10-23T19:49:35.697Z,54.71
2022-10-23T19:52:02.034Z,54.78
2022-10-23T19:54:28.366Z,54.76
2022-10-23T19:56:54.701Z,54.90
2022-10-23T19:59:21.034Z,54.83
2022-10-23T20:01:49.011Z,55.14
2022-10-23T20:04:15.597Z,54.98
2022-10-23T20:06:41.951Z,55.07
2022-10-23T20:09:08.278Z,55.08
2022-10-23T20:11:34.603Z,55.28
2022-10-23T20:14:00.948Z,54.85
2022-10-23T20:16:27.284Z,55.00
2022-10-23T20:18:53.612Z,55.22
2022-10-23T20:21:19.960Z,55.36
2022-10-23T20:23:46.306Z,55.75
2022-10-23T20:26:12.655Z,55.50
2022-10-23T20:28:38.976Z,55.70
2022-10-23T20:31:05.385Z,55.49
2022-10-23T20:33:31.716Z,55.68
2022-10-23T20:35:58.046Z,55.47
2022-10-23T20:38:24.364Z,55.43
2022-10-23T20:40:50.701Z,55.33
2022-10-23T20:43:17.029Z,55.50
2022-10-23T20:45:43.361Z,55.71
2022-10-23T20:48:09.679Z,55.36
2022-10-23T20:50:36.009Z,55.63
2022-10-23T20:53:02.343Z,55.37
2022-10-23T20:55:28.672Z,55.31
2022-10-23T20:57:55.032Z,55.68
2022-10-23T21:00:21.363Z,55.54
2022-10-23T21:02:49.964Z,55.66
2022-10-23T21:05:18.651Z,55.66
2022-10-23T21:07:44.983Z,55.55
2022-10-23T21:10:11.314Z,55.69
2022-10-23T21:12:37.646Z,55.54
2022-10-23T21:15:03.994Z,55.79
2022-10-23T21:20:01.554Z,55.79
2022-10-23T21:22:27.879Z,55.47
2022-10-23T21:24:54.218Z,55.54
2022-10-23T21:27:20.559Z,55.67
2022-10-23T21:29:46.890Z,55.51
2022-10-23T21:32:13.225Z,55.77
2022-10-23T21:34:39.585Z,55.48
2022-10-23T21:37:14.480Z,55.51
2022-10-23T21:39:41.285Z,55.80
2022-10-23T21:42:07.627Z,55.45
2022-10-23T21:44:33.963Z,55.75
2022-10-23T21:47:00.287Z,55.50
2022-10-23T21:49:26.615Z,55.74
2022-10-23T21:51:52.952Z,55.64
2022-10-23T21:54:19.280Z,56.01
2022-10-23T21:56:45.611Z,55.91
2022-10-23T21:59:11.933Z,55.69
2022-10-23T22:01:38.342Z,55.88
2022-10-23T22:04:04.754Z,55.95
2022-10-23T22:06:31.067Z,55.69
2022-10-23T22:08:57.416Z,55.60
2022-10-23T22:11:23.736Z,55.88
2022-10-23T22:13:50.088Z,55.59
2022-10-23T22:16:16.497Z,55.94
2022-10-23T22:18:42.816Z,55.64
2022-10-23T22:21:09.146Z,55.63
2022-10-23T22:23:35.508Z,55.74
2022-10-23T22:26:01.841Z,55.56
2022-10-23T22:28:28.160Z,55.77
2022-10-23T22:30:54.495Z,55.96
2022-10-23T22:33:20.832Z,55.68
2022-10-23T22:35:47.232Z,55.67
2022-10-23T22:38:13.700Z,55.68
2022-10-23T22:40:44.330Z,55.69
2022-10-23T22:43:12.757Z,55.71
2022-10-23T22:45:39.093Z,55.87
2022-10-23T22:48:05.411Z,55.87
2022-10-23T22:50:31.753Z,56.03
2022-10-23T22:52:58.084Z,55.92
2022-10-23T22:55:24.415Z,55.85
2022-10-23T22:57:50.743Z,55.91
2022-10-23T23:00:17.082Z,56.12
2022-10-23T23:02:43.412Z,56.03
2022-10-23T23:05:09.744Z,56.08
2022-10-23T23:07:36.071Z,55.83
2022-10-23T23:10:02.403Z,56.07
2022-10-23T23:12:28.737Z,56.07
2022-10-23T23:14:55.068Z,55.98
2022-10-23T23:17:21.396Z,55.94
2022-10-23T23:19:47.720Z,55.78
2022-10-23T23:22:14.133Z,56.04
2022-10-23T23:24:40.477Z,56.12
2022-10-23T23:27:06.808Z,56.20
2022-10-23T23:29:33.139Z,56.15
2022-10-23T23:31:59.474Z,55.82
2022-10-23T23:34:25.829Z,55.74
2022-10-23T23:36:52.164Z,56.07
2022-10-23T23:39:18.501Z,55.81
2022-10-23T23:41:44.830Z,56.01
2022-10-23T23:44:11.167Z,55.76
2022-10-23T23:46:37.498Z,55.94
2022-10-23T23:49:03.821Z,55.83
2022-10-23T23:51:30.152Z,55.78
2022-10-23T23:53:56.486Z,56.05
2022-10-23T23:56:22.812Z,55.90
2022-10-23T23:58:49.147Z,55.83
